Storm Lake, IA

8:48 AM CDT on May 23, 2017 (GMT -0500)
Church Corners | | Change Station
Active Advisory: Flood Warning

Elev 1421 ft 42.64 °N, 95.20 °W | Updated 1 second ago

Overcast
Overcast
49.3 °F
Feels Like 48 °F
N
4.0
Wind Variable Wind from NNE
Gusts 4.9 mph

Today
High -- | Low -- °F
--% Chance of Precip.
Yesterday
High -- | Low -- °F
Precip. -- in
Pressure 29.87 in
Visibility 9.0 miles
Clouds Scattered Clouds 1500 ft
Mostly Cloudy 4100 ft
Mostly Cloudy 4800 ft
Windchill 48 °F
Dew Point 44 °F
Humidity 83%
Rainfall 0.00 in
Snow Depth Not available.
5:51 AM 8:44 PM
Waning Crescent, 8% visible
METAR KSLB 231335Z AUTO 32016KT 9SM SCT015 BKN041 BKN048 09/07 A2987 RMK AO2
Pressure 29.87 in
Visibility 9.0 miles
Clouds Scattered Clouds 1500 ft
Mostly Cloudy 4100 ft
Mostly Cloudy 4800 ft
Windchill 48 °F
Dew Point 44 °F
Humidity 83%
Rainfall 0.00 in
Snow Depth Not available.
5:51 AM 8:44 PM
Waning Crescent, 8% visible
METAR KSLB 231335Z AUTO 32016KT 9SM SCT015 BKN041 BKN048 09/07 A2987 RMK AO2

Get Your Daily Forecast Email!

Thanks for signing up!

Be on the lookout for a verification email in your inbox.

You'll start receiving severe weather alerts in your inbox..

×

10-Day Weather Forecast

Almanac

Astronomy

May. 23, 2017 Rise Set
Actual Time
Civil Twilight
Nautical Twilight
Astronomical Twilight
Moon
Length of Visible Light
Length of Day
Tomorrow will be .
, % of the Moon is Illuminated

Today's Extremes

State Highs State Lows

Community

WunderPhotos

Category 6

Welcome to Category 6. This is the collective home for Weather Underground's featured writeups by Dr. Jeff Masters (right), Bob Henson (left), Chris Burt, and other regular contributors.

Nearby

Air Quality

  Air Quality AQ Index Pollutant
Not available.

Snow Depth

Station Depth Elevation

Earthquake Activity

City Distance Mag. Time & Date
Minimum magnitude displayed is 2.5.

Coastal Water Temperatures

Place Temperature

Stations

Nearby Weather Stations

Station Location Temp. Windchill Dew Point Humidity Wind Precip. Elev Updated Type
                   

Watches & Warnings

Flood Warning
Issued: 9:58 AM CDT May. 22, 2017 – National Weather Service

... Flood Warning extended until further notice...
the Flood Warning continues for
the Little Sioux river at Linn Grove.
* Until further notice.
* At 09am Monday the stage was 18.4 feet.
* Flood stage is 18.0 feet.
* Forecast... the river will continue rising to near 19.2 feet by
Thursday may 25. Additional rises may be possible thereafter.
* At stages near 18.5 feet... the City Park in Sioux Rapids is
flooded.


Lat... Lon 4302 9510 4299 9503 4287 9512 4288 9536
          4296 9543 4293 9520


Location flood latest observed maximum forecast recent observed
         stage stage time stage time crest time

Big Sioux River
hwdi4 19.0 19.98 Mon 9 am 20.4 Tue 7 am

Ocheyedan river
spoi4 8.0 9.08 Mon 10 am 9.2 Mon 7 PM

Little Sioux river
mifi4 12.0 12.37 Mon 9 am 12.4 Mon may 22
spwi4 10.0 11.78 Mon 9 am 12.0 Tue 1 am